createdAt,value
2018-09-28T00:02:15.235Z,14.38
2018-09-28T00:04:43.474Z,14.41
2018-09-28T00:07:11.727Z,14.43
2018-09-28T00:09:39.960Z,14.43
2018-09-28T00:12:08.423Z,14.41
2018-09-28T00:14:36.663Z,14.37
2018-09-28T00:17:04.933Z,14.34
2018-09-28T00:19:33.362Z,14.35
2018-09-28T00:22:01.664Z,14.34
2018-09-28T00:24:29.864Z,14.31
2018-09-28T00:26:58.092Z,14.28
2018-09-28T00:29:26.353Z,14.21
2018-09-28T00:31:54.615Z,14.18
2018-09-28T00:34:22.879Z,14.13
2018-09-28T00:36:51.136Z,14.08
2018-09-28T00:39:19.323Z,14.07
2018-09-28T00:41:47.600Z,14.08
2018-09-28T00:44:15.861Z,14.08
2018-09-28T00:46:44.115Z,14.11
2018-09-28T00:49:12.413Z,14.12
2018-09-28T00:51:40.887Z,14.14
2018-09-28T00:54:09.150Z,14.13
2018-09-28T00:56:37.460Z,14.15
2018-09-28T00:59:05.852Z,14.13
2018-09-28T01:01:34.159Z,14.13
2018-09-28T01:04:02.419Z,14.13
2018-09-28T01:06:30.666Z,14.13
2018-09-28T01:08:58.899Z,14.13
2018-09-28T01:11:27.628Z,14.11
2018-09-28T01:13:55.899Z,14.08
2018-09-28T01:16:29.484Z,14.07
2018-09-28T01:18:57.771Z,14.08
2018-09-28T01:21:26.119Z,14.08
2018-09-28T01:23:54.367Z,14.08
2018-09-28T01:26:22.578Z,14.08
2018-09-28T01:28:50.804Z,14.07
2018-09-28T01:31:19.120Z,14.05
2018-09-28T01:33:47.400Z,14.02
2018-09-28T01:36:15.805Z,14.00
2018-09-28T01:38:44.057Z,13.98
2018-09-28T01:41:12.263Z,13.92
2018-09-28T01:43:40.498Z,13.87
2018-09-28T01:46:09.041Z,13.84
2018-09-28T01:48:37.381Z,13.83
2018-09-28T01:51:05.629Z,13.78
2018-09-28T01:53:33.821Z,13.76
2018-09-28T01:56:02.016Z,13.70
2018-09-28T01:58:30.263Z,13.64
2018-09-28T02:00:59.065Z,13.62
2018-09-28T02:03:27.519Z,13.62
2018-09-28T02:05:55.751Z,13.63
2018-09-28T02:08:24.015Z,13.63
2018-09-28T02:10:52.389Z,13.65
2018-09-28T02:13:20.590Z,13.67
2018-09-28T02:15:48.955Z,13.64
2018-09-28T02:18:17.143Z,13.56
2018-09-28T02:20:45.388Z,13.47
2018-09-28T02:23:13.570Z,13.40
2018-09-28T02:25:41.827Z,13.34
2018-09-28T02:28:10.159Z,13.35
2018-09-28T02:30:38.377Z,13.37
2018-09-28T02:33:06.715Z,13.42
2018-09-28T02:35:34.916Z,13.44
2018-09-28T02:38:03.159Z,13.47
2018-09-28T02:40:31.379Z,13.49
2018-09-28T02:42:59.696Z,13.51
2018-09-28T02:45:27.886Z,13.52
2018-09-28T02:47:56.158Z,13.51
2018-09-28T02:50:24.414Z,13.53
2018-09-28T02:52:52.633Z,13.50
2018-09-28T02:55:20.899Z,13.45
2018-09-28T02:57:49.117Z,13.37
2018-09-28T03:00:17.320Z,13.29
2018-09-28T03:02:45.627Z,13.25
2018-09-28T03:05:13.907Z,13.23
2018-09-28T03:07:42.142Z,13.21
2018-09-28T03:10:10.349Z,13.16
2018-09-28T03:12:38.548Z,13.17
2018-09-28T03:15:06.954Z,13.17
2018-09-28T03:17:35.288Z,13.17
2018-09-28T03:20:03.623Z,13.22
2018-09-28T03:22:31.862Z,13.24
2018-09-28T03:25:00.076Z,13.26
2018-09-28T03:27:28.304Z,13.26
2018-09-28T03:29:57.180Z,13.28
2018-09-28T03:32:25.619Z,13.29
2018-09-28T03:34:53.899Z,13.28
2018-09-28T03:37:22.106Z,13.27
2018-09-28T03:39:50.412Z,13.27
2018-09-28T03:42:18.777Z,13.20
2018-09-28T03:44:47.036Z,13.14
2018-09-28T03:47:15.279Z,13.04
2018-09-28T03:49:43.531Z,12.99
2018-09-28T03:52:11.763Z,12.93
2018-09-28T03:54:39.963Z,12.90
2018-09-28T03:57:08.274Z,12.91
2018-09-28T03:59:36.522Z,12.94
2018-09-28T04:02:05.317Z,12.99
2018-09-28T04:04:33.498Z,13.01
2018-09-28T04:07:01.847Z,13.02
2018-09-28T04:09:30.320Z,13.01
2018-09-28T04:11:58.555Z,12.99
2018-09-28T04:14:27.415Z,13.01
2018-09-28T04:16:55.624Z,12.98
2018-09-28T04:19:23.867Z,12.95
2018-09-28T04:21:59.794Z,12.91
2018-09-28T04:24:28.984Z,12.88
2018-09-28T04:26:57.356Z,12.86
2018-09-28T04:29:26.119Z,12.81
2018-09-28T04:31:54.616Z,12.81
2018-09-28T04:34:23.481Z,12.78
2018-09-28T04:36:52.137Z,12.73
2018-09-28T04:39:21.042Z,12.66
2018-09-28T04:41:49.817Z,12.58
2018-09-28T04:44:18.741Z,12.53
2018-09-28T04:46:47.088Z,12.51
2018-09-28T04:49:15.327Z,12.52
2018-09-28T04:51:43.531Z,12.50
2018-09-28T04:54:11.794Z,12.48
2018-09-28T04:56:40.065Z,12.49
2018-09-28T04:59:08.378Z,12.50
2018-09-28T05:01:36.769Z,12.52
2018-09-28T05:04:04.965Z,12.49
2018-09-28T05:06:33.206Z,12.46
2018-09-28T05:09:01.693Z,12.47
2018-09-28T05:11:30.007Z,12.53
2018-09-28T05:13:58.319Z,12.55
2018-09-28T05:16:26.596Z,12.55
2018-09-28T05:18:54.824Z,12.53
2018-09-28T05:21:23.101Z,12.52
2018-09-28T05:23:51.322Z,12.53
2018-09-28T05:26:19.611Z,12.53
2018-09-28T05:28:50.226Z,12.52
2018-09-28T05:31:18.505Z,12.48
2018-09-28T05:33:46.567Z,12.47
2018-09-28T05:36:14.814Z,12.50
2018-09-28T05:38:42.991Z,12.55
2018-09-28T05:41:11.207Z,12.59
2018-09-28T05:43:39.373Z,12.57
2018-09-28T05:46:07.603Z,12.62
2018-09-28T05:48:35.763Z,12.64
2018-09-28T05:51:04.024Z,12.67
2018-09-28T05:53:32.183Z,12.71
2018-09-28T05:56:00.362Z,12.73
2018-09-28T05:58:34.056Z,12.71
2018-09-28T06:01:07.511Z,12.75
2018-09-28T06:03:39.845Z,12.77
2018-09-28T06:06:08.182Z,12.84
2018-09-28T06:08:36.360Z,12.92
2018-09-28T06:11:04.573Z,12.97
2018-09-28T06:13:32.742Z,13.05
2018-09-28T06:16:00.894Z,13.12
2018-09-28T06:18:29.083Z,13.15
2018-09-28T06:20:57.223Z,13.20
2018-09-28T06:23:25.442Z,13.27
2018-09-28T06:25:53.617Z,13.31
2018-09-28T06:28:21.794Z,13.35
2018-09-28T06:30:49.995Z,13.40
2018-09-28T06:33:18.174Z,13.42
2018-09-28T06:35:46.392Z,13.46
2018-09-28T06:38:14.619Z,13.48
2018-09-28T06:40:42.751Z,13.51
2018-09-28T06:43:10.942Z,13.55
2018-09-28T06:45:39.127Z,13.57
2018-09-28T06:48:07.364Z,13.58
2018-09-28T06:50:35.451Z,13.62
2018-09-28T06:53:03.619Z,13.63
2018-09-28T06:55:31.816Z,13.64
2018-09-28T06:58:00.021Z,13.64
2018-09-28T07:00:28.178Z,13.65
2018-09-28T07:02:56.338Z,13.67
2018-09-28T07:05:24.533Z,13.69
2018-09-28T07:07:52.716Z,13.71
2018-09-28T07:10:20.874Z,13.72
2018-09-28T07:12:49.048Z,13.71
2018-09-28T07:15:17.202Z,13.72
2018-09-28T07:17:45.407Z,13.75
2018-09-28T07:20:13.558Z,13.79
2018-09-28T07:22:41.758Z,13.82
2018-09-28T07:25:09.937Z,13.84
2018-09-28T07:27:38.091Z,13.85
2018-09-28T07:30:06.556Z,13.86
2018-09-28T07:32:34.747Z,13.89
2018-09-28T07:35:02.910Z,13.91
2018-09-28T07:37:31.087Z,13.92
2018-09-28T07:39:59.247Z,13.94
2018-09-28T07:42:27.432Z,13.95
2018-09-28T07:44:55.615Z,13.95
2018-09-28T07:47:23.832Z,13.97
2018-09-28T07:49:52.083Z,13.97
2018-09-28T07:52:20.256Z,13.99
2018-09-28T07:54:48.902Z,13.97
2018-09-28T07:57:17.104Z,13.96
2018-09-28T07:59:45.298Z,13.96
2018-09-28T08:02:13.506Z,13.94
2018-09-28T08:04:41.682Z,13.93
2018-09-28T08:07:09.894Z,13.93
2018-09-28T08:09:38.095Z,13.91
2018-09-28T08:12:06.418Z,13.90
2018-09-28T08:14:34.596Z,13.90
2018-09-28T08:17:02.885Z,13.91
2018-09-28T08:19:31.059Z,13.93
2018-09-28T08:22:05.878Z,13.95
2018-09-28T08:24:34.094Z,13.96
2018-09-28T08:27:02.219Z,13.99
2018-09-28T08:29:30.390Z,13.98
2018-09-28T08:31:58.583Z,14.00
2018-09-28T08:34:26.916Z,14.01
2018-09-28T08:36:55.202Z,14.02
2018-09-28T08:39:23.314Z,14.02
2018-09-28T08:41:51.559Z,14.06
2018-09-28T08:44:19.703Z,14.05
2018-09-28T08:46:47.866Z,14.04
2018-09-28T08:49:16.103Z,14.04
2018-09-28T08:51:44.218Z,14.05
2018-09-28T08:54:12.408Z,14.08
2018-09-28T08:56:40.594Z,14.12
2018-09-28T08:59:08.772Z,14.14
2018-09-28T09:01:37.039Z,14.14
2018-09-28T09:04:05.202Z,14.18
2018-09-28T09:06:33.442Z,14.23
2018-09-28T09:09:01.627Z,14.26
2018-09-28T09:11:29.795Z,14.31
2018-09-28T09:13:57.966Z,14.34
2018-09-28T09:16:26.172Z,14.36
2018-09-28T09:18:54.369Z,14.39
2018-09-28T09:21:22.557Z,14.41
2018-09-28T09:23:50.749Z,14.46
2018-09-28T09:26:18.898Z,14.49
2018-09-28T09:28:47.082Z,14.53
2018-09-28T09:31:15.839Z,14.55
2018-09-28T09:33:44.056Z,14.56
2018-09-28T09:36:12.292Z,14.59
2018-09-28T09:38:40.462Z,14.61
2018-09-28T09:41:08.735Z,14.63
2018-09-28T09:43:36.910Z,14.65
2018-09-28T09:46:05.383Z,14.67
2018-09-28T09:48:33.607Z,14.69
2018-09-28T09:51:01.891Z,14.73
2018-09-28T09:53:30.059Z,14.75
2018-09-28T09:55:58.297Z,14.77
2018-09-28T09:58:26.488Z,14.80
2018-09-28T10:01:00.036Z,14.80
2018-09-28T10:03:48.358Z,14.79
2018-09-28T10:06:16.546Z,14.78
2018-09-28T10:08:44.727Z,14.80
2018-09-28T10:11:12.927Z,14.82
2018-09-28T10:13:41.088Z,14.82
2018-09-28T10:16:09.421Z,14.84
2018-09-28T10:18:37.651Z,14.84
2018-09-28T10:21:06.135Z,14.86
2018-09-28T10:23:34.312Z,14.88
2018-09-28T10:26:02.473Z,14.87
2018-09-28T10:28:30.692Z,14.87
2018-09-28T10:30:58.820Z,14.90
2018-09-28T10:33:27.066Z,14.92
2018-09-28T10:35:55.250Z,14.92
2018-09-28T10:38:23.441Z,14.91
2018-09-28T10:40:51.650Z,14.93
2018-09-28T10:43:19.799Z,14.94
2018-09-28T10:45:48.286Z,14.94
2018-09-28T10:48:16.442Z,14.95
2018-09-28T10:50:44.616Z,14.96
2018-09-28T10:53:12.873Z,14.98
2018-09-28T10:58:15.490Z,15.01
2018-09-28T11:00:43.671Z,15.00
2018-09-28T11:03:11.962Z,14.97
2018-09-28T11:05:40.256Z,14.94
2018-09-28T11:08:08.474Z,14.93
2018-09-28T11:10:36.654Z,14.92
2018-09-28T11:13:04.816Z,14.91
2018-09-28T11:15:33.150Z,14.90
2018-09-28T11:18:01.249Z,14.93
2018-09-28T11:20:29.546Z,14.96
2018-09-28T11:22:57.718Z,14.97
2018-09-28T11:25:26.035Z,14.95
2018-09-28T11:27:54.225Z,14.94
2018-09-28T11:30:22.467Z,14.95
2018-09-28T11:32:50.675Z,14.96
2018-09-28T11:35:18.839Z,15.00
2018-09-28T11:37:47.027Z,15.02
2018-09-28T11:40:15.180Z,15.02
2018-09-28T11:42:43.379Z,15.03
2018-09-28T11:45:11.585Z,14.99
2018-09-28T11:47:39.739Z,15.00
2018-09-28T11:50:07.907Z,14.97
2018-09-28T11:52:36.085Z,14.98
2018-09-28T11:55:04.272Z,15.01
2018-09-28T11:57:32.523Z,15.03
2018-09-28T12:00:00.749Z,15.06
2018-09-28T12:02:28.844Z,15.09
2018-09-28T12:04:57.035Z,15.15
2018-09-28T12:07:25.162Z,15.22
2018-09-28T12:09:53.331Z,15.31
2018-09-28T12:12:21.626Z,15.34
2018-09-28T12:14:49.675Z,15.38
2018-09-28T12:17:17.850Z,15.41
2018-09-28T12:19:46.020Z,15.42
2018-09-28T12:22:14.179Z,15.45
2018-09-28T12:24:42.417Z,15.50
2018-09-28T12:27:10.598Z,15.54
2018-09-28T12:29:38.756Z,15.59
2018-09-28T12:32:13.673Z,15.61
2018-09-28T12:34:41.857Z,15.66
2018-09-28T12:37:10.045Z,15.71
2018-09-28T12:39:38.269Z,15.78
2018-09-28T12:42:06.655Z,15.80
2018-09-28T12:44:34.869Z,15.81
2018-09-28T12:47:02.983Z,15.82
2018-09-28T12:49:31.178Z,15.82
2018-09-28T12:51:59.352Z,15.80
2018-09-28T12:54:27.649Z,15.80
2018-09-28T12:56:55.756Z,15.80
2018-09-28T12:59:23.924Z,15.82
2018-09-28T13:01:52.097Z,15.82
2018-09-28T13:04:20.739Z,15.83
2018-09-28T13:06:50.106Z,15.85
2018-09-28T13:09:18.471Z,15.89
2018-09-28T13:11:46.931Z,15.95
2018-09-28T13:14:15.203Z,15.99
2018-09-28T13:16:43.281Z,16.03
2018-09-28T13:19:11.484Z,16.06
2018-09-28T13:21:39.705Z,16.07
2018-09-28T13:24:07.861Z,16.06
2018-09-28T13:26:36.077Z,16.04
2018-09-28T13:29:04.237Z,16.01
2018-09-28T13:31:32.404Z,16.02
2018-09-28T13:34:00.677Z,16.02
2018-09-28T13:36:28.893Z,16.01
2018-09-28T13:38:57.725Z,15.98
2018-09-28T13:41:26.051Z,15.94
2018-09-28T13:43:54.216Z,15.91
2018-09-28T13:46:23.323Z,15.90
2018-09-28T13:48:51.565Z,15.90
2018-09-28T13:51:19.676Z,15.89
2018-09-28T13:53:47.973Z,15.91
2018-09-28T13:56:16.055Z,15.92
2018-09-28T13:58:44.239Z,15.94
2018-09-28T14:01:12.410Z,15.93
2018-09-28T14:03:40.959Z,15.94
2018-09-28T14:06:10.401Z,15.92
2018-09-28T14:08:38.596Z,15.93
2018-09-28T14:11:06.747Z,15.96
2018-09-28T14:13:34.998Z,16.01
2018-09-28T14:16:03.321Z,16.04
2018-09-28T14:18:33.651Z,16.06
2018-09-28T14:21:03.049Z,16.09
2018-09-28T14:23:32.586Z,16.15
2018-09-28T14:26:01.061Z,16.23
2018-09-28T14:28:30.967Z,16.29
2018-09-28T14:30:59.206Z,16.36
2018-09-28T14:33:27.549Z,16.42
2018-09-28T14:35:55.888Z,16.51
2018-09-28T14:38:24.334Z,16.57
2018-09-28T14:40:53.479Z,16.64
2018-09-28T14:43:22.170Z,16.71
2018-09-28T14:45:50.530Z,16.73
2018-09-28T14:48:18.965Z,16.78
2018-09-28T14:50:47.404Z,16.81
2018-09-28T14:53:15.765Z,16.85
2018-09-28T14:55:44.159Z,16.87
2018-09-28T14:58:12.671Z,16.90
2018-09-28T15:00:41.042Z,16.92
2018-09-28T15:03:14.471Z,16.93
2018-09-28T15:05:43.723Z,16.95
2018-09-28T15:08:12.602Z,16.95
2018-09-28T15:10:41.396Z,16.99
2018-09-28T15:13:09.894Z,17.01
2018-09-28T15:15:39.105Z,17.02
2018-09-28T15:18:09.734Z,17.00
2018-09-28T15:20:42.458Z,16.97
2018-09-28T15:23:11.069Z,16.90
2018-09-28T15:25:42.039Z,16.83
2018-09-28T15:28:10.345Z,16.79
2018-09-28T15:30:38.712Z,16.74
2018-09-28T15:33:07.168Z,16.69
2018-09-28T15:35:35.801Z,16.62
2018-09-28T15:38:05.650Z,16.58
2018-09-28T15:40:34.820Z,16.53
2018-09-28T15:43:05.325Z,16.50
2018-09-28T15:45:33.899Z,16.45
2018-09-28T15:48:02.682Z,16.43
2018-09-28T15:50:32.810Z,16.42
2018-09-28T15:53:01.657Z,16.41
2018-09-28T15:55:31.054Z,16.39
2018-09-28T15:57:59.467Z,16.40
2018-09-28T16:00:28.199Z,16.40
2018-09-28T16:02:58.929Z,16.40
2018-09-28T16:05:28.466Z,16.39
2018-09-28T16:07:56.933Z,16.37
2018-09-28T16:10:25.413Z,16.36
2018-09-28T16:12:54.050Z,16.33
2018-09-28T16:15:23.595Z,16.32
2018-09-28T16:17:53.401Z,16.30
2018-09-28T16:20:23.031Z,16.30
2018-09-28T16:22:56.576Z,16.31
2018-09-28T16:25:24.976Z,16.30
2018-09-28T16:27:53.442Z,16.27
2018-09-28T16:30:21.897Z,16.23
2018-09-28T16:32:50.303Z,16.16
2018-09-28T16:35:22.942Z,16.14
2018-09-28T16:37:52.114Z,16.10
2018-09-28T16:40:21.055Z,16.07
2018-09-28T16:42:49.516Z,16.05
2018-09-28T16:45:19.292Z,16.02
2018-09-28T16:47:47.653Z,15.99
2018-09-28T16:50:16.921Z,15.96
2018-09-28T16:52:46.460Z,15.91
2018-09-28T16:55:15.514Z,15.87
2018-09-28T16:57:46.248Z,15.82
2018-09-28T17:00:15.877Z,15.79
2018-09-28T17:02:45.194Z,15.76
2018-09-28T17:05:13.779Z,15.72
2018-09-28T17:07:42.625Z,15.70
2018-09-28T17:10:11.523Z,15.66
2018-09-28T17:12:40.269Z,15.64
2018-09-28T17:15:08.795Z,15.59
2018-09-28T17:17:38.204Z,15.53
2018-09-28T17:20:07.109Z,15.47
2018-09-28T17:22:35.458Z,15.44
2018-09-28T17:25:03.871Z,15.38
2018-09-28T17:27:33.199Z,15.31
2018-09-28T17:30:02.584Z,15.28
2018-09-28T17:32:34.104Z,15.22
2018-09-28T17:35:05.583Z,15.17
2018-09-28T17:37:34.383Z,15.12
2018-09-28T17:40:02.722Z,15.06
2018-09-28T17:42:31.072Z,15.02
2018-09-28T17:44:59.641Z,14.96
2018-09-28T17:47:28.058Z,14.90
2018-09-28T17:49:56.878Z,14.83
2018-09-28T17:52:25.537Z,14.77
2018-09-28T17:54:54.331Z,14.70
2018-09-28T17:57:22.487Z,14.63
2018-09-28T17:59:50.655Z,14.57
2018-09-28T18:02:18.823Z,14.50
2018-09-28T18:04:46.967Z,14.42
2018-09-28T18:07:15.298Z,14.35
2018-09-28T18:09:43.708Z,14.27
2018-09-28T18:12:13.515Z,14.19
2018-09-28T18:14:41.836Z,14.12
2018-09-28T18:17:10.335Z,14.07
2018-09-28T18:19:47.515Z,14.02
2018-09-28T18:22:16.514Z,13.96
2018-09-28T18:24:45.027Z,13.90
2018-09-28T18:27:13.396Z,13.85
2018-09-28T18:29:41.862Z,13.79
2018-09-28T18:32:10.151Z,13.76
2018-09-28T18:34:38.556Z,13.77
2018-09-28T18:37:07.413Z,13.78
2018-09-28T18:39:35.886Z,13.76
2018-09-28T18:42:04.494Z,13.78
2018-09-28T18:44:32.868Z,13.76
2018-09-28T18:47:01.320Z,13.74
2018-09-28T18:49:30.103Z,13.72
2018-09-28T18:51:58.725Z,13.70
2018-09-28T18:54:27.151Z,13.67
2018-09-28T18:56:55.513Z,13.64
2018-09-28T18:59:24.044Z,13.55
2018-09-28T19:01:52.535Z,13.55
2018-09-28T19:04:20.994Z,13.51
2018-09-28T19:06:49.721Z,13.47
2018-09-28T19:09:19.110Z,13.45
2018-09-28T19:11:48.219Z,13.43
2018-09-28T19:14:17.091Z,13.41
2018-09-28T19:16:46.440Z,13.38
2018-09-28T19:19:14.987Z,13.36
2018-09-28T19:21:43.216Z,13.34
2018-09-28T19:24:11.487Z,13.33
2018-09-28T19:26:39.788Z,13.31
2018-09-28T19:29:08.046Z,13.28
2018-09-28T19:31:36.809Z,13.25
2018-09-28T19:34:05.135Z,13.23
2018-09-28T19:36:33.843Z,13.20
2018-09-28T19:39:02.088Z,13.19
2018-09-28T19:41:30.732Z,13.16
2018-09-28T19:43:59.182Z,13.16
2018-09-28T19:46:28.077Z,13.14
2018-09-28T19:48:57.529Z,13.13
2018-09-28T19:51:25.977Z,13.10
2018-09-28T19:53:54.306Z,13.08
2018-09-28T19:56:23.507Z,13.05
2018-09-28T19:58:52.074Z,13.01
2018-09-28T20:01:20.598Z,12.98
2018-09-28T20:03:48.899Z,12.95
2018-09-28T20:06:18.708Z,12.94
2018-09-28T20:08:47.933Z,12.94
2018-09-28T20:11:16.314Z,12.90
2018-09-28T20:13:45.427Z,12.86
2018-09-28T20:16:14.055Z,12.84
2018-09-28T20:18:42.571Z,12.81
2018-09-28T20:21:10.896Z,12.78
2018-09-28T20:23:39.208Z,12.74
2018-09-28T20:26:07.753Z,12.71
2018-09-28T20:28:37.641Z,12.68
2018-09-28T20:31:06.906Z,12.65
2018-09-28T20:33:35.607Z,12.63
2018-09-28T20:36:03.883Z,12.60
2018-09-28T20:38:33.082Z,12.57
2018-09-28T20:41:01.577Z,12.54
2018-09-28T20:43:29.920Z,12.49
2018-09-28T20:46:01.569Z,12.46
2018-09-28T20:48:30.919Z,12.44
2018-09-28T20:51:02.176Z,12.41
2018-09-28T20:53:30.796Z,12.37
2018-09-28T20:56:01.885Z,12.33
2018-09-28T20:58:30.505Z,12.29
2018-09-28T21:00:59.151Z,12.26
2018-09-28T21:03:27.564Z,12.26
2018-09-28T21:05:56.995Z,12.23
2018-09-28T21:08:25.376Z,12.18
2018-09-28T21:10:53.779Z,12.12
2018-09-28T21:13:23.394Z,12.08
2018-09-28T21:15:51.654Z,12.05
2018-09-28T21:18:19.928Z,12.01
2018-09-28T21:20:48.454Z,11.96
2018-09-28T21:23:16.870Z,11.92
2018-09-28T21:25:45.143Z,11.89
2018-09-28T21:28:13.752Z,11.85
2018-09-28T21:30:42.603Z,11.85
2018-09-28T21:33:11.900Z,11.83
2018-09-28T21:35:40.731Z,11.80
2018-09-28T21:38:09.119Z,11.76
2018-09-28T21:40:37.319Z,11.74
2018-09-28T21:43:06.359Z,11.74
2018-09-28T21:45:35.005Z,11.71
2018-09-28T21:48:03.529Z,11.71
2018-09-28T21:50:32.123Z,11.72
2018-09-28T21:53:00.863Z,11.71
2018-09-28T21:55:29.774Z,11.69
2018-09-28T21:57:58.099Z,11.63
2018-09-28T22:00:26.418Z,11.61
2018-09-28T22:02:54.852Z,11.58
2018-09-28T22:05:23.155Z,11.57
2018-09-28T22:07:51.691Z,11.55
2018-09-28T22:10:20.123Z,11.52
2018-09-28T22:12:48.833Z,11.48
2018-09-28T22:15:17.792Z,11.46
2018-09-28T22:17:46.677Z,11.43
2018-09-28T22:20:15.713Z,11.41
2018-09-28T22:22:44.813Z,11.40
2018-09-28T22:25:13.072Z,11.39
2018-09-28T22:27:42.128Z,11.37
2018-09-28T22:30:11.486Z,11.35
2018-09-28T22:32:40.807Z,11.32
2018-09-28T22:35:10.071Z,11.32
2018-09-28T22:37:38.682Z,11.30
2018-09-28T22:40:07.914Z,11.26
2018-09-28T22:42:36.554Z,11.26
2018-09-28T22:45:04.948Z,11.26
2018-09-28T22:47:33.307Z,11.23
2018-09-28T22:50:01.670Z,11.19
2018-09-28T22:52:30.047Z,11.14
2018-09-28T22:54:58.347Z,11.13
2018-09-28T22:57:26.607Z,11.15
2018-09-28T22:59:54.900Z,11.15
2018-09-28T23:02:23.266Z,11.14
2018-09-28T23:04:51.581Z,11.14
2018-09-28T23:07:20.063Z,11.14
2018-09-28T23:09:48.371Z,11.13
2018-09-28T23:12:21.438Z,11.15
2018-09-28T23:14:49.967Z,11.11
2018-09-28T23:17:18.396Z,11.08
2018-09-28T23:19:46.601Z,11.06
2018-09-28T23:22:14.858Z,11.03
2018-09-28T23:24:43.271Z,10.99
2018-09-28T23:27:11.582Z,11.00
2018-09-28T23:29:40.042Z,10.97
2018-09-28T23:32:08.536Z,10.97
2018-09-28T23:34:36.839Z,10.94
2018-09-28T23:37:05.158Z,10.92
2018-09-28T23:39:33.516Z,10.95
2018-09-28T23:42:01.751Z,10.96
2018-09-28T23:44:30.092Z,10.99
2018-09-28T23:46:58.464Z,11.00
2018-09-28T23:49:26.715Z,11.00
2018-09-28T23:51:55.096Z,10.98
2018-09-28T23:54:23.433Z,10.97
2018-09-28T23:56:51.816Z,10.98
2018-09-28T23:59:20.728Z,10.96
